createdAt,value
2023-04-30T00:00:12.162Z,100.00
2023-04-30T00:02:59.568Z,100.00
2023-04-30T00:05:27.131Z,100.00
2023-04-30T00:07:54.377Z,100.00
2023-04-30T00:10:21.968Z,100.00
2023-04-30T00:12:49.246Z,100.00
2023-04-30T00:15:16.892Z,100.00
2023-04-30T00:17:44.108Z,100.00
2023-04-30T00:20:12.489Z,100.00
2023-04-30T00:22:39.898Z,100.00
2023-04-30T00:25:07.881Z,100.00
2023-04-30T00:27:35.077Z,100.00
2023-04-30T00:30:02.890Z,100.00
2023-04-30T00:32:30.252Z,100.00
2023-04-30T00:34:57.781Z,100.00
2023-04-30T00:37:25.047Z,100.00
2023-04-30T00:39:53.031Z,100.00
2023-04-30T00:42:20.564Z,99.92
2023-04-30T00:44:48.178Z,100.00
2023-04-30T00:47:15.513Z,100.00
2023-04-30T00:49:43.261Z,100.00
2023-04-30T00:52:10.803Z,100.00
2023-04-30T00:54:38.456Z,100.00
2023-04-30T00:57:09.853Z,100.00
2023-04-30T00:59:38.726Z,100.00
2023-04-30T01:02:06.228Z,100.00
2023-04-30T01:04:34.665Z,100.00
2023-04-30T01:07:03.484Z,100.00
2023-04-30T01:09:31.773Z,100.00
2023-04-30T01:12:52.513Z,100.00
2023-04-30T01:16:04.259Z,100.00
2023-04-30T01:19:14.213Z,100.00
2023-04-30T01:21:43.764Z,100.00
2023-04-30T01:24:38.908Z,100.00
2023-04-30T01:27:49.505Z,100.00
2023-04-30T01:30:19.277Z,100.00
2023-04-30T01:32:46.882Z,100.00
2023-04-30T01:35:14.182Z,100.00
2023-04-30T01:38:01.123Z,100.00
2023-04-30T01:41:02.051Z,100.00
2023-04-30T01:44:07.563Z,100.00
2023-04-30T01:46:35.636Z,100.00
2023-04-30T01:49:30.395Z,100.00
2023-04-30T01:52:19.285Z,100.00
2023-04-30T01:54:59.438Z,100.00
2023-04-30T01:57:42.974Z,99.37
2023-04-30T02:00:12.153Z,99.15
2023-04-30T02:02:39.586Z,99.16
2023-04-30T02:05:07.929Z,99.21
2023-04-30T02:07:43.961Z,98.94
2023-04-30T02:10:12.655Z,98.88
2023-04-30T02:12:40.940Z,98.70
2023-04-30T02:15:09.879Z,98.78
2023-04-30T02:17:37.275Z,98.44
2023-04-30T02:20:05.768Z,98.58
2023-04-30T02:22:33.189Z,97.73
2023-04-30T02:25:00.841Z,97.58
2023-04-30T02:27:32.465Z,97.87
2023-04-30T02:30:01.169Z,98.09
2023-04-30T02:32:28.754Z,97.99
2023-04-30T02:34:56.975Z,97.29
2023-04-30T02:37:24.778Z,97.18
2023-04-30T02:39:54.070Z,97.45
2023-04-30T02:42:21.794Z,97.65
2023-04-30T02:44:49.411Z,97.75
2023-04-30T02:47:16.730Z,97.80
2023-04-30T02:49:44.422Z,98.16
2023-04-30T02:52:11.725Z,98.26
2023-04-30T02:54:39.443Z,97.75
2023-04-30T02:57:07.451Z,97.59
2023-04-30T02:59:35.072Z,95.61
2023-04-30T03:02:02.269Z,95.03
2023-04-30T03:04:29.936Z,95.33
2023-04-30T03:06:57.201Z,94.29
2023-04-30T03:09:24.913Z,93.90
2023-04-30T03:11:52.198Z,92.61
2023-04-30T03:14:19.820Z,92.04
2023-04-30T03:16:47.205Z,92.26
2023-04-30T03:19:15.038Z,91.16
2023-04-30T03:21:42.302Z,90.72
2023-04-30T03:24:09.846Z,90.22
2023-04-30T03:26:37.212Z,89.49
2023-04-30T03:29:04.851Z,89.22
2023-04-30T03:31:32.547Z,89.24
2023-04-30T03:34:00.458Z,89.53
2023-04-30T03:36:27.837Z,87.87
2023-04-30T03:38:55.535Z,87.88
2023-04-30T03:41:24.377Z,86.87
2023-04-30T03:43:52.052Z,85.65
2023-04-30T03:46:19.559Z,85.28
2023-04-30T03:48:47.253Z,85.43
2023-04-30T03:51:14.564Z,84.82
2023-04-30T03:53:42.197Z,85.27
2023-04-30T03:56:09.677Z,85.27
2023-04-30T03:58:37.550Z,84.72
2023-04-30T04:01:05.617Z,84.51
2023-04-30T04:03:35.875Z,84.31
2023-04-30T04:06:04.923Z,84.05
2023-04-30T04:08:32.964Z,84.26
2023-04-30T04:11:00.395Z,83.73
2023-04-30T04:13:27.947Z,83.71
2023-04-30T04:15:55.424Z,83.55
2023-04-30T04:18:22.976Z,83.89
2023-04-30T04:20:50.298Z,83.99
2023-04-30T04:23:17.985Z,83.89
2023-04-30T04:25:47.323Z,83.35
2023-04-30T04:28:14.979Z,83.25
2023-04-30T04:30:42.492Z,83.95
2023-04-30T04:33:11.598Z,86.15
2023-04-30T04:35:38.940Z,85.23
2023-04-30T04:38:06.660Z,85.99
2023-04-30T04:40:35.604Z,86.17
2023-04-30T04:43:03.344Z,85.51
2023-04-30T04:45:31.590Z,86.76
2023-04-30T04:47:59.281Z,86.77
2023-04-30T04:50:26.626Z,85.91
2023-04-30T04:52:54.208Z,86.15
2023-04-30T04:55:21.608Z,85.42
2023-04-30T04:57:49.283Z,85.85
2023-04-30T05:00:17.995Z,85.57
2023-04-30T05:02:45.660Z,85.43
2023-04-30T05:05:13.022Z,85.58
2023-04-30T05:07:41.465Z,85.19
2023-04-30T05:10:09.597Z,84.13
2023-04-30T05:12:37.260Z,83.99
2023-04-30T05:15:04.945Z,83.92
2023-04-30T05:17:32.594Z,84.07
2023-04-30T05:19:59.886Z,83.08
2023-04-30T05:22:27.494Z,82.91
2023-04-30T05:24:54.814Z,82.35
2023-04-30T05:27:22.459Z,82.24
2023-04-30T05:29:49.769Z,81.90
2023-04-30T05:32:17.488Z,81.83
2023-04-30T05:34:44.841Z,81.58
2023-04-30T05:37:14.514Z,81.47
2023-04-30T05:39:41.854Z,81.58
2023-04-30T05:42:09.423Z,81.49
2023-04-30T05:44:36.719Z,81.05
2023-04-30T05:47:04.449Z,81.30
2023-04-30T05:49:33.286Z,79.62
2023-04-30T05:52:03.805Z,79.55
2023-04-30T05:54:32.066Z,78.85
2023-04-30T05:56:59.986Z,78.40
2023-04-30T05:59:27.271Z,78.24
2023-04-30T06:01:54.920Z,77.12
2023-04-30T06:04:22.184Z,75.38
2023-04-30T06:06:49.819Z,74.74
2023-04-30T06:09:17.129Z,73.72
2023-04-30T06:11:49.155Z,71.45
2023-04-30T06:14:18.244Z,70.76
2023-04-30T06:16:46.258Z,70.45
2023-04-30T06:19:13.565Z,69.87
2023-04-30T06:21:43.606Z,68.34
2023-04-30T06:24:11.073Z,66.51
2023-04-30T06:26:39.071Z,65.84
2023-04-30T06:29:06.464Z,64.68
2023-04-30T06:31:34.220Z,64.13
2023-04-30T06:34:01.499Z,65.58
2023-04-30T06:36:29.147Z,64.67
2023-04-30T06:38:56.411Z,63.63
2023-04-30T06:41:23.955Z,63.99
2023-04-30T06:43:51.388Z,63.33
2023-04-30T06:46:19.081Z,61.71
2023-04-30T06:48:46.396Z,61.48
2023-04-30T06:51:14.860Z,60.73
2023-04-30T06:53:42.483Z,60.44
2023-04-30T06:56:10.004Z,59.56
2023-04-30T06:58:37.316Z,58.74
2023-04-30T07:01:05.064Z,57.32
2023-04-30T07:03:33.831Z,57.49
2023-04-30T07:06:01.871Z,55.44
2023-04-30T07:08:29.309Z,54.02
2023-04-30T07:10:57.334Z,53.53
2023-04-30T07:13:24.662Z,53.21
2023-04-30T07:15:52.944Z,52.60
2023-04-30T07:18:20.639Z,53.37
2023-04-30T07:20:48.218Z,52.57
2023-04-30T07:23:15.723Z,53.36
2023-04-30T07:25:43.495Z,53.89
2023-04-30T07:28:11.118Z,53.45
2023-04-30T07:30:41.082Z,53.77
2023-04-30T07:33:09.862Z,52.76
2023-04-30T07:35:37.548Z,52.83
2023-04-30T07:38:05.992Z,52.96
2023-04-30T07:40:36.189Z,52.61
2023-04-30T07:43:05.252Z,52.21
2023-04-30T07:45:34.083Z,52.76
2023-04-30T07:48:02.391Z,52.22
2023-04-30T07:50:34.087Z,52.62
2023-04-30T07:53:02.742Z,51.53
2023-04-30T07:55:31.337Z,50.29
2023-04-30T07:57:59.804Z,50.24
2023-04-30T08:00:29.728Z,49.17
2023-04-30T08:02:59.250Z,48.94
2023-04-30T08:05:28.251Z,47.80
2023-04-30T08:07:56.394Z,46.65
2023-04-30T08:10:25.400Z,45.78
2023-04-30T08:12:53.255Z,44.80
2023-04-30T08:15:22.044Z,43.97
2023-04-30T08:17:51.354Z,43.90
2023-04-30T08:20:19.454Z,43.90
2023-04-30T08:22:47.507Z,44.26
2023-04-30T08:25:15.176Z,44.95
2023-04-30T08:27:42.552Z,44.21
2023-04-30T08:30:11.088Z,43.90
2023-04-30T08:32:38.540Z,43.95
2023-04-30T08:35:07.348Z,42.80
2023-04-30T08:37:34.919Z,42.06
2023-04-30T08:40:02.583Z,41.91
2023-04-30T08:42:37.627Z,40.79
2023-04-30T08:45:08.883Z,40.29
2023-04-30T08:47:37.519Z,40.86
2023-04-30T08:50:06.948Z,40.83
2023-04-30T08:52:37.421Z,40.42
2023-04-30T08:55:08.981Z,39.79
2023-04-30T08:57:38.407Z,39.31
2023-04-30T09:00:07.533Z,39.92
2023-04-30T09:02:39.374Z,38.63
2023-04-30T09:05:13.926Z,38.75
2023-04-30T09:08:01.143Z,39.10
2023-04-30T09:10:33.386Z,39.68
2023-04-30T09:13:08.201Z,38.12
2023-04-30T09:15:41.487Z,36.38
2023-04-30T09:18:17.797Z,30.16
2023-04-30T09:21:03.382Z,22.88
2023-04-30T09:23:31.157Z,22.80
2023-04-30T09:25:59.674Z,20.04
2023-04-30T09:28:29.023Z,15.57
2023-04-30T09:30:58.067Z,18.72
2023-04-30T09:33:25.465Z,14.43
2023-04-30T09:35:53.230Z,12.29
2023-04-30T09:38:28.202Z,10.45
2023-04-30T09:40:58.187Z,11.30
2023-04-30T09:43:25.965Z,13.75
2023-04-30T09:45:53.826Z,10.98
2023-04-30T09:48:28.262Z,9.25
2023-04-30T09:50:56.401Z,9.55
2023-04-30T09:53:24.362Z,12.91
2023-04-30T09:55:52.892Z,11.02
2023-04-30T09:58:20.586Z,10.94
2023-04-30T10:00:54.467Z,13.24
2023-04-30T10:03:24.204Z,14.59
2023-04-30T10:05:53.266Z,11.26
2023-04-30T10:08:36.438Z,9.13
2023-04-30T10:11:07.294Z,8.30
2023-04-30T10:13:58.833Z,6.94
2023-04-30T10:17:05.000Z,5.49
2023-04-30T10:19:36.656Z,6.44
2023-04-30T10:22:05.248Z,8.86
2023-04-30T10:24:32.536Z,8.90
2023-04-30T10:27:00.180Z,6.82
2023-04-30T10:29:27.443Z,6.70
2023-04-30T10:31:56.649Z,9.91
2023-04-30T10:34:58.837Z,12.36
2023-04-30T10:37:46.726Z,7.82
2023-04-30T10:40:15.070Z,7.42
2023-04-30T10:42:50.462Z,7.97
2023-04-30T10:45:17.977Z,6.89
2023-04-30T10:47:46.252Z,7.86
2023-04-30T10:50:14.031Z,6.85
2023-04-30T10:52:41.816Z,7.47
2023-04-30T10:55:10.300Z,7.36
2023-04-30T10:57:46.737Z,8.48
2023-04-30T11:00:16.545Z,11.11
2023-04-30T11:02:47.465Z,11.65
2023-04-30T11:05:18.491Z,13.23
2023-04-30T11:07:57.452Z,15.02
2023-04-30T11:10:28.613Z,15.91
2023-04-30T11:12:56.403Z,16.54
2023-04-30T11:15:44.306Z,17.66
2023-04-30T11:18:14.449Z,19.72
2023-04-30T11:20:51.051Z,20.11
2023-04-30T11:23:32.222Z,20.46
2023-04-30T11:26:08.145Z,20.54
2023-04-30T11:28:38.329Z,20.66
2023-04-30T11:31:06.206Z,21.60
2023-04-30T11:33:34.927Z,22.68
2023-04-30T11:36:02.780Z,24.37
2023-04-30T11:38:35.640Z,24.54
2023-04-30T11:41:04.794Z,24.86
2023-04-30T11:43:34.817Z,25.74
2023-04-30T11:46:15.499Z,25.81
2023-04-30T11:48:46.646Z,24.58
2023-04-30T11:51:25.310Z,25.51
2023-04-30T11:53:54.136Z,24.98
2023-04-30T11:56:25.454Z,25.74
2023-04-30T11:58:56.058Z,24.94
2023-04-30T12:01:28.649Z,25.61
2023-04-30T12:03:57.705Z,25.14
2023-04-30T12:06:29.341Z,25.19
2023-04-30T12:09:01.657Z,25.14
2023-04-30T12:11:32.351Z,25.18
2023-04-30T12:14:10.917Z,25.90
2023-04-30T12:16:48.395Z,25.23
2023-04-30T12:19:25.399Z,25.37
2023-04-30T12:21:55.213Z,25.67
2023-04-30T12:24:27.149Z,26.33
2023-04-30T12:26:54.813Z,26.14
2023-04-30T12:29:23.112Z,27.70
2023-04-30T12:31:53.594Z,26.92
2023-04-30T12:34:21.244Z,27.41
2023-04-30T12:36:48.559Z,26.40
2023-04-30T12:39:16.636Z,26.67
2023-04-30T12:41:50.056Z,26.99
2023-04-30T12:44:27.724Z,26.81
2023-04-30T12:46:57.807Z,26.41
2023-04-30T12:49:31.053Z,26.18
2023-04-30T12:52:11.527Z,25.83
2023-04-30T12:54:40.514Z,27.30
2023-04-30T12:57:13.156Z,26.90
2023-04-30T12:59:53.392Z,27.41
2023-04-30T13:02:25.614Z,28.21
2023-04-30T13:04:54.647Z,27.91
2023-04-30T13:07:22.215Z,27.75
2023-04-30T13:09:49.851Z,27.71
2023-04-30T13:12:17.413Z,27.54
2023-04-30T13:14:45.014Z,27.00
2023-04-30T13:17:13.982Z,27.53
2023-04-30T13:19:42.120Z,27.90
2023-04-30T13:22:09.525Z,27.74
2023-04-30T13:24:37.490Z,27.14
2023-04-30T13:27:05.029Z,27.11
2023-04-30T13:29:32.928Z,27.44
2023-04-30T13:32:00.290Z,27.42
2023-04-30T13:34:28.137Z,27.27
2023-04-30T13:36:55.530Z,27.89
2023-04-30T13:39:23.264Z,27.86
2023-04-30T13:41:50.746Z,27.33
2023-04-30T13:44:18.731Z,26.64
2023-04-30T13:46:46.196Z,26.54
2023-04-30T13:49:13.875Z,27.19
2023-04-30T13:51:41.360Z,27.23
2023-04-30T13:54:09.108Z,28.30
2023-04-30T13:56:36.439Z,28.57
2023-04-30T13:59:04.223Z,27.91
2023-04-30T14:01:33.090Z,28.54
2023-04-30T14:04:02.125Z,27.97
2023-04-30T14:06:29.808Z,28.63
2023-04-30T14:08:57.438Z,28.61
2023-04-30T14:11:24.909Z,28.61
2023-04-30T14:13:52.743Z,28.68
2023-04-30T14:16:21.005Z,28.12
2023-04-30T14:18:48.675Z,29.01
2023-04-30T14:21:16.096Z,28.23
2023-04-30T14:23:46.593Z,27.59
2023-04-30T14:26:15.024Z,28.29
2023-04-30T14:28:42.651Z,27.55
2023-04-30T14:31:10.712Z,27.85
2023-04-30T14:33:38.369Z,26.70
2023-04-30T14:36:07.716Z,27.17
2023-04-30T14:38:35.413Z,27.53
2023-04-30T14:41:02.673Z,27.61
2023-04-30T14:43:31.274Z,27.46
2023-04-30T14:45:58.630Z,27.15
2023-04-30T14:48:26.292Z,27.93
2023-04-30T14:50:53.588Z,27.87
2023-04-30T14:53:21.305Z,27.78
2023-04-30T14:55:48.950Z,27.73
2023-04-30T14:58:16.499Z,28.12
2023-04-30T15:00:43.750Z,28.59
2023-04-30T15:03:11.313Z,28.37
2023-04-30T15:05:38.623Z,27.43
2023-04-30T15:08:06.779Z,27.56
2023-04-30T15:10:34.071Z,27.20
2023-04-30T15:13:03.803Z,26.90
2023-04-30T15:15:31.215Z,26.58
2023-04-30T15:18:04.024Z,27.60
2023-04-30T15:20:31.976Z,28.21
2023-04-30T15:23:00.144Z,27.83
2023-04-30T15:25:27.761Z,28.42
2023-04-30T15:27:55.570Z,27.92
2023-04-30T15:30:23.069Z,27.34
2023-04-30T15:32:50.983Z,28.05
2023-04-30T15:35:18.476Z,27.86
2023-04-30T15:37:46.072Z,28.31
2023-04-30T15:40:15.710Z,28.38
2023-04-30T15:42:43.765Z,28.72
2023-04-30T15:45:11.269Z,29.12
2023-04-30T15:47:39.415Z,28.82
2023-04-30T15:50:08.021Z,29.27
2023-04-30T15:52:37.537Z,28.57
2023-04-30T15:55:07.048Z,29.11
2023-04-30T15:57:34.585Z,29.14
2023-04-30T16:00:01.855Z,28.75
2023-04-30T16:02:30.317Z,28.85
2023-04-30T16:04:57.683Z,28.36
2023-04-30T16:07:25.373Z,28.66
2023-04-30T16:09:53.653Z,28.73
2023-04-30T16:12:21.728Z,29.22
2023-04-30T16:14:48.934Z,29.35
2023-04-30T16:17:16.533Z,29.50
2023-04-30T16:19:43.950Z,29.62
2023-04-30T16:22:12.426Z,29.59
2023-04-30T16:24:39.752Z,29.74
2023-04-30T16:27:08.480Z,30.14
2023-04-30T16:29:35.803Z,30.35
2023-04-30T16:32:03.413Z,29.84
2023-04-30T16:34:30.717Z,29.94
2023-04-30T16:36:58.260Z,30.31
2023-04-30T16:39:25.539Z,30.17
2023-04-30T16:41:53.139Z,29.84
2023-04-30T16:44:20.747Z,29.36
2023-04-30T16:46:49.170Z,29.48
2023-04-30T16:49:16.965Z,28.81
2023-04-30T16:51:44.525Z,29.23
2023-04-30T16:54:11.862Z,28.87
2023-04-30T16:56:39.416Z,29.31
2023-04-30T16:59:06.833Z,29.53
2023-04-30T17:01:34.746Z,29.39
2023-04-30T17:04:02.261Z,29.02
2023-04-30T17:06:30.160Z,29.50
2023-04-30T17:08:57.567Z,29.38
2023-04-30T17:11:25.359Z,29.31
2023-04-30T17:13:54.607Z,29.77
2023-04-30T17:16:22.370Z,29.96
2023-04-30T17:18:49.699Z,30.05
2023-04-30T17:21:17.391Z,30.11
2023-04-30T17:23:44.852Z,30.36
2023-04-30T17:26:12.382Z,30.42
2023-04-30T17:28:39.774Z,30.51
2023-04-30T17:31:09.458Z,30.60
2023-04-30T17:33:36.815Z,30.14
2023-04-30T17:36:04.716Z,30.65
2023-04-30T17:38:32.359Z,30.78
2023-04-30T17:41:00.007Z,30.50
2023-04-30T17:43:27.749Z,30.61
2023-04-30T17:45:56.376Z,30.74
2023-04-30T17:48:23.872Z,30.58
2023-04-30T17:50:51.628Z,30.76
2023-04-30T17:53:18.997Z,30.98
2023-04-30T17:55:46.719Z,31.30
2023-04-30T17:58:14.145Z,31.48
2023-04-30T18:00:43.579Z,31.73
2023-04-30T18:03:11.388Z,32.11
2023-04-30T18:05:39.700Z,32.09
2023-04-30T18:08:06.967Z,32.47
2023-04-30T18:10:34.730Z,32.42
2023-04-30T18:13:02.324Z,32.38
2023-04-30T18:15:30.143Z,32.36
2023-04-30T18:17:59.381Z,32.54
2023-04-30T18:20:28.128Z,32.98
2023-04-30T18:22:55.333Z,33.23
2023-04-30T18:25:23.007Z,33.31
2023-04-30T18:27:50.296Z,33.06
2023-04-30T18:30:17.936Z,33.16
2023-04-30T18:32:45.234Z,33.35
2023-04-30T18:35:12.924Z,33.37
2023-04-30T18:37:40.657Z,33.72
2023-04-30T18:40:09.167Z,33.69
2023-04-30T18:42:38.579Z,33.55
2023-04-30T18:45:06.844Z,33.64
2023-04-30T18:47:34.224Z,33.82
2023-04-30T18:50:02.130Z,33.90
2023-04-30T18:52:29.461Z,34.06
2023-04-30T18:54:57.104Z,34.42
2023-04-30T18:57:24.436Z,34.45
2023-04-30T18:59:52.060Z,34.50
2023-04-30T19:02:19.833Z,34.83
2023-04-30T19:04:48.489Z,34.90
2023-04-30T19:07:15.760Z,34.94
2023-04-30T19:09:45.273Z,35.09
2023-04-30T19:12:15.083Z,35.13
2023-04-30T19:14:43.340Z,35.32
2023-04-30T19:17:12.586Z,35.34
2023-04-30T19:19:40.565Z,35.33
2023-04-30T19:22:07.973Z,35.30
2023-04-30T19:24:36.094Z,35.47
2023-04-30T19:27:04.385Z,35.51
2023-04-30T19:29:32.567Z,35.70
2023-04-30T19:32:00.215Z,35.81
2023-04-30T19:34:27.938Z,35.95
2023-04-30T19:36:55.484Z,36.00
2023-04-30T19:39:23.380Z,36.24
2023-04-30T19:41:50.835Z,36.34
2023-04-30T19:44:20.030Z,36.67
2023-04-30T19:46:48.131Z,37.14
2023-04-30T19:49:16.395Z,36.94
2023-04-30T19:51:43.719Z,37.02
2023-04-30T19:54:14.398Z,37.22
2023-04-30T19:56:42.159Z,37.18
2023-04-30T19:59:10.627Z,37.27
2023-04-30T20:01:38.749Z,37.48
2023-04-30T20:04:07.123Z,37.25
2023-04-30T20:06:34.564Z,37.59
2023-04-30T20:09:02.669Z,37.78
2023-04-30T20:11:30.060Z,37.84
2023-04-30T20:13:57.789Z,37.72
2023-04-30T20:16:25.436Z,37.81
2023-04-30T20:18:53.164Z,38.21
2023-04-30T20:21:21.492Z,38.99
2023-04-30T20:23:49.123Z,39.13
2023-04-30T20:26:17.071Z,39.07
2023-04-30T20:28:44.849Z,39.05
2023-04-30T20:31:12.182Z,39.14
2023-04-30T20:33:41.364Z,39.03
2023-04-30T20:36:08.741Z,39.34
2023-04-30T20:38:36.448Z,39.48
2023-04-30T20:41:10.297Z,39.35
2023-04-30T20:43:38.145Z,39.69
2023-04-30T20:46:05.527Z,39.77
2023-04-30T20:48:33.085Z,39.77
2023-04-30T20:51:00.698Z,39.69
2023-04-30T20:53:28.228Z,39.83
2023-04-30T20:56:00.312Z,39.79
2023-04-30T20:58:28.890Z,39.89
2023-04-30T21:00:56.845Z,39.80
2023-04-30T21:03:24.956Z,39.88
2023-04-30T21:05:52.382Z,39.93
2023-04-30T21:08:19.984Z,39.86
2023-04-30T21:10:47.261Z,39.90
2023-04-30T21:13:15.131Z,39.98
2023-04-30T21:15:44.165Z,40.18
2023-04-30T21:18:11.768Z,40.39
2023-04-30T21:20:39.152Z,40.37
2023-04-30T21:23:06.833Z,40.35
2023-04-30T21:25:38.295Z,40.37
2023-04-30T21:28:06.547Z,40.29
2023-04-30T21:30:35.663Z,40.75
2023-04-30T21:33:04.068Z,40.77
2023-04-30T21:35:33.154Z,40.85
2023-04-30T21:38:01.023Z,40.61
2023-04-30T21:40:32.173Z,41.16
2023-04-30T21:43:01.511Z,41.21
2023-04-30T21:45:28.792Z,41.23
2023-04-30T21:47:56.564Z,41.53
2023-04-30T21:50:24.158Z,42.07
2023-04-30T21:52:53.037Z,42.15
2023-04-30T21:55:20.788Z,42.07
2023-04-30T21:57:51.323Z,42.54
2023-04-30T22:00:18.947Z,42.53
2023-04-30T22:02:47.718Z,42.56
2023-04-30T22:05:15.403Z,42.43
2023-04-30T22:07:43.188Z,42.28
2023-04-30T22:10:11.061Z,42.78
2023-04-30T22:12:38.722Z,43.06
2023-04-30T22:15:07.150Z,42.88
2023-04-30T22:17:34.788Z,43.01
2023-04-30T22:20:02.152Z,43.23
2023-04-30T22:22:29.721Z,43.57
2023-04-30T22:24:57.119Z,43.53
2023-04-30T22:27:25.084Z,44.11
2023-04-30T22:29:52.374Z,44.15
2023-04-30T22:32:19.917Z,44.37
2023-04-30T22:34:47.292Z,44.26
2023-04-30T22:37:14.833Z,44.87
2023-04-30T22:39:42.632Z,45.08
2023-04-30T22:42:10.921Z,44.84
2023-04-30T22:44:38.304Z,44.90
2023-04-30T22:47:06.553Z,44.98
2023-04-30T22:49:35.749Z,44.99
2023-04-30T22:52:04.294Z,45.78
2023-04-30T22:54:31.712Z,45.40
2023-04-30T22:56:59.862Z,45.67
2023-04-30T22:59:27.214Z,45.67
2023-04-30T23:01:54.848Z,45.96
2023-04-30T23:04:22.777Z,45.85
2023-04-30T23:06:50.527Z,45.97
2023-04-30T23:09:17.882Z,46.18
2023-04-30T23:11:45.853Z,46.41
2023-04-30T23:14:13.113Z,46.58
2023-04-30T23:16:42.758Z,46.53
2023-04-30T23:19:10.785Z,46.80
2023-04-30T23:21:38.632Z,46.70
2023-04-30T23:24:06.048Z,47.00
2023-04-30T23:26:33.712Z,47.00
2023-04-30T23:29:01.090Z,47.35
2023-04-30T23:31:28.829Z,47.25
2023-04-30T23:33:56.438Z,47.64
2023-04-30T23:36:24.019Z,47.40
2023-04-30T23:38:51.424Z,47.78
2023-04-30T23:41:19.035Z,47.78
2023-04-30T23:43:46.273Z,48.00
2023-04-30T23:46:16.094Z,48.12
2023-04-30T23:48:43.400Z,48.02
2023-04-30T23:51:11.031Z,47.95
2023-04-30T23:53:38.260Z,48.02
2023-04-30T23:56:06.180Z,48.16
2023-04-30T23:58:33.539Z,48.44
